Time;durP1;ratioP1;P1;durP2;ratioP2;P2;SDS_P1;SDS_P2;PMS_P1;PMS_P2;Temp;Humidity;BMP_temperature;BMP_pressure;BME280_temperature;BME280_humidity;BME280_pressure;Samples;Min_cycle;Max_cycle;Signal;HPM_P1;HPM_P2
2022/08/10 00:02:48;;;;;;;5.97;5.10;;;;;;;27.88;38.45;99360.03;5078528;28;20222;-72
2022/08/10 00:05:14;;;;;;;5.33;4.93;;;;;;;27.94;38.28;99356.06;5094815;28;20195;-72
2022/08/10 00:07:41;;;;;;;4.90;4.60;;;;;;;28.00;38.56;99355.63;5093955;28;20191;-72
2022/08/10 00:10:08;;;;;;;4.80;4.50;;;;;;;28.01;39.05;99350.97;5094198;28;20573;-72
2022/08/10 00:12:35;;;;;;;4.97;4.47;;;;;;;28.07;38.71;99349.72;5093858;28;20203;-72
2022/08/10 00:15:02;;;;;;;6.30;5.17;;;;;;;28.10;38.50;99351.81;5093831;28;20255;-72
2022/08/10 00:17:29;;;;;;;5.97;5.10;;;;;;;28.18;38.20;99351.06;5093764;28;20253;-72
2022/08/10 00:19:57;;;;;;;5.17;4.60;;;;;;;28.22;38.09;99352.84;5094288;28;20248;-72
2022/08/10 00:22:23;;;;;;;5.33;4.93;;;;;;;28.26;37.99;99355.75;5093593;28;20225;-72
2022/08/10 00:24:50;;;;;;;5.60;4.80;;;;;;;28.29;38.17;99352.38;5094232;28;20198;-72
2022/08/10 00:27:17;;;;;;;5.00;4.70;;;;;;;28.32;38.18;99352.56;5093896;28;20199;-72
2022/08/10 00:29:44;;;;;;;5.03;4.63;;;;;;;28.19;38.39;99347.19;5093831;28;20191;-72
2022/08/10 00:32:10;;;;;;;4.70;4.40;;;;;;;28.22;38.75;99346.59;5094379;28;20613;-72
2022/08/10 00:34:37;;;;;;;4.87;4.57;;;;;;;28.26;38.66;99353.03;5093995;28;20248;-72
2022/08/10 00:37:05;;;;;;;5.10;4.60;;;;;;;28.31;38.48;99353.72;5093339;28;20250;-72
2022/08/10 00:39:32;;;;;;;5.60;5.03;;;;;;;28.35;38.57;99351.13;5094213;28;20191;-72
2022/08/10 00:41:59;;;;;;;5.83;5.43;;;;;;;28.35;37.95;99357.41;5093497;28;20199;-72
2022/08/10 00:44:25;;;;;;;5.70;5.13;;;;;;;28.21;37.87;99361.34;5093273;28;20249;-72
2022/08/10 00:46:52;;;;;;;6.30;5.10;;;;;;;28.14;38.15;99361.00;5093542;28;20191;-72
2022/08/10 00:49:19;;;;;;;5.77;5.37;;;;;;;28.09;38.19;99353.75;5093143;28;20195;-72
2022/08/10 00:51:46;;;;;;;4.80;4.40;;;;;;;28.09;38.00;99352.94;5093453;28;20195;-72
2022/08/10 00:54:14;;;;;;;8.77;5.40;;;;;;;27.79;38.18;99349.03;5094189;28;20195;-72
2022/08/10 00:56:41;;;;;;;5.97;5.53;;;;;;;27.62;38.45;99348.94;5093036;28;20253;-72
2022/08/10 00:59:07;;;;;;;5.23;4.93;;;;;;;27.40;39.36;99356.31;5093536;28;20234;-72
2022/08/10 01:01:34;;;;;;;6.40;5.13;;;;;;;27.43;39.77;99344.75;5093232;28;20249;-72
2022/08/10 01:04:03;;;;;;;5.73;5.07;;;;;;;27.40;39.14;99348.13;5093161;28;20231;-72
2022/08/10 01:06:41;;;;;;;5.67;5.23;;;;;;;27.37;39.40;99341.38;5093469;28;20187;-72
2022/08/10 01:09:16;;;;;;;5.57;5.03;;;;;;;26.85;40.04;99341.16;5094034;28;20191;-72
2022/08/10 01:11:49;;;;;;;4.60;4.30;;;;;;;26.70;41.14;99336.03;5093955;28;20186;-72
2022/08/10 01:14:25;;;;;;;5.67;5.03;;;;;;;26.46;41.78;99332.69;5092752;28;20252;-72
2022/08/10 01:16:57;;;;;;;5.43;5.13;;;;;;;26.41;41.46;99327.34;5093867;28;20187;-72
2022/08/10 01:19:42;;;;;;;6.10;5.57;;;;;;;26.45;41.41;99333.81;5092696;28;20646;-72
2022/08/10 01:22:39;;;;;;;5.67;5.20;;;;;;;26.48;42.59;99331.28;5092576;28;20241;-72
2022/08/10 01:25:21;;;;;;;4.93;4.53;;;;;;;26.31;42.56;99333.00;5090251;28;20552;-72
2022/08/10 01:28:00;;;;;;;4.70;4.30;;;;;;;26.15;43.22;99334.38;5092523;28;20188;-72
2022/08/10 01:30:32;;;;;;;6.10;4.70;;;;;;;26.22;41.97;99337.53;5093178;28;20609;-72
2022/08/10 01:33:05;;;;;;;4.90;4.43;;;;;;;26.21;42.34;99327.75;5092382;28;20248;-72
2022/08/10 01:35:38;;;;;;;5.87;5.10;;;;;;;26.27;42.12;99327.34;5092394;28;20213;-72
2022/08/10 01:38:11;;;;;;;4.97;4.73;;;;;;;26.14;42.20;99319.16;5093507;28;20188;-72
2022/08/10 01:40:42;;;;;;;5.50;5.10;;;;;;;25.81;42.80;99317.56;5093233;28;20249;-71
2022/08/10 01:43:11;;;;;;;7.40;4.40;;;;;;;25.55;43.71;99303.59;5093371;28;20261;-72
2022/08/10 01:45:43;;;;;;;5.40;4.97;;;;;;;25.48;43.85;99299.66;5092178;28;20191;-72
2022/08/10 01:48:29;;;;;;;4.83;4.43;;;;;;;25.62;44.11;99303.19;5092546;28;20187;-72
2022/08/10 01:51:01;;;;;;;5.37;4.60;;;;;;;25.37;43.91;99300.91;5092484;28;20542;-71
2022/08/10 01:53:37;;;;;;;6.30;5.53;;;;;;;25.14;45.08;99301.81;5092156;28;20278;-72
2022/08/10 01:56:05;;;;;;;6.00;5.10;;;;;;;25.35;44.61;99303.13;5092154;28;20718;-72
2022/08/10 01:58:35;;;;;;;5.23;4.87;;;;;;;25.49;43.99;99312.13;5092236;28;20226;-72
2022/08/10 02:01:07;;;;;;;5.10;4.70;;;;;;;25.66;43.20;99310.47;5091938;28;20192;-71
2022/08/10 02:03:35;;;;;;;4.93;4.47;;;;;;;25.68;43.34;99304.75;5093182;28;20264;-72
2022/08/10 02:06:05;;;;;;;5.17;4.77;;;;;;;25.76;42.92;99287.72;5092042;28;20670;-79
2022/08/10 02:08:34;;;;;;;4.50;4.20;;;;;;;26.12;44.24;99302.31;5093120;28;20187;-72
2022/08/10 02:11:02;;;;;;;6.00;5.10;;;;;;;26.27;42.02;99310.19;5091911;28;20195;-71
2022/08/10 02:13:31;;;;;;;5.03;4.60;;;;;;;26.33;42.49;99303.53;5092152;28;20225;-71
2022/08/10 02:16:01;;;;;;;4.80;4.50;;;;;;;26.34;42.39;99305.16;5092486;28;20192;-72
2022/08/10 02:18:31;;;;;;;6.73;4.70;;;;;;;26.50;42.45;99303.72;5091896;28;20187;-72
2022/08/10 02:21:03;;;;;;;7.60;4.60;;;;;;;26.48;41.15;99305.94;5092138;28;20194;-72
2022/08/10 02:23:34;;;;;;;4.20;4.00;;;;;;;26.66;41.74;99305.06;5092498;28;20195;-71
2022/08/10 02:26:03;;;;;;;5.70;3.97;;;;;;;26.81;42.00;99305.53;5091893;28;20237;-72
2022/08/10 02:28:32;;;;;;;4.77;4.20;;;;;;;26.75;40.96;99305.94;5092103;28;20252;-74
2022/08/10 02:31:03;;;;;;;5.03;4.53;;;;;;;26.70;40.67;99306.06;5092071;28;20256;-71
2022/08/10 02:33:32;;;;;;;4.33;4.03;;;;;;;26.77;40.78;99303.72;5092871;28;20228;-71
2022/08/10 02:36:01;;;;;;;4.60;4.03;;;;;;;26.99;40.43;99301.06;5092371;28;20191;-71
2022/08/10 02:38:33;;;;;;;3.83;3.60;;;;;;;27.27;40.80;99308.84;5090614;28;20278;-72
2022/08/10 02:41:09;;;;;;;4.43;4.00;;;;;;;27.32;39.39;99316.13;5092488;28;20183;-72
2022/08/10 02:43:43;;;;;;;5.83;4.13;;;;;;;27.29;39.14;99312.09;5095349;28;20195;-72
2022/08/10 02:46:14;;;;;;;4.70;3.90;;;;;;;27.26;39.40;99317.34;5095248;28;20274;-71
2022/08/10 02:48:45;;;;;;;4.63;3.87;;;;;;;27.37;39.48;99321.44;5095747;28;20194;-72
2022/08/10 02:51:18;;;;;;;4.73;4.20;;;;;;;27.39;38.78;99327.38;5095218;28;20187;-72
2022/08/10 02:53:48;;;;;;;4.10;3.83;;;;;;;27.38;39.17;99325.78;5094643;28;20211;-72
2022/08/10 02:56:21;;;;;;;8.67;4.10;;;;;;;27.37;38.96;99335.91;5094725;28;20632;-72
2022/08/10 02:58:55;;;;;;;5.07;4.07;;;;;;;27.28;39.28;99326.03;5095311;28;20231;-72
2022/08/10 03:01:27;;;;;;;4.30;4.00;;;;;;;27.21;39.68;99325.66;5094781;28;20638;-72
2022/08/10 03:04:00;;;;;;;4.53;3.90;;;;;;;27.37;39.24;99335.09;5094871;28;20237;-72
2022/08/10 03:06:34;;;;;;;4.30;4.00;;;;;;;27.30;38.84;99337.44;5094761;28;20245;-72
2022/08/10 03:09:02;;;;;;;4.67;4.27;;;;;;;27.31;38.77;99330.88;5095307;28;20187;-73
2022/08/10 03:11:31;;;;;;;4.10;3.70;;;;;;;27.27;38.72;99338.84;5094767;28;20275;-73
2022/08/10 03:14:00;;;;;;;6.87;6.37;;;;;;;26.93;39.34;99329.53;5094206;28;20284;-73
2022/08/10 03:16:29;;;;;;;5.13;4.83;;;;;;;27.03;39.41;99346.47;5094329;28;20195;-73
2022/08/10 03:19:00;;;;;;;4.37;3.90;;;;;;;27.04;39.27;99352.75;5094408;28;20256;-73
2022/08/10 03:21:28;;;;;;;4.10;3.90;;;;;;;26.94;40.88;99347.50;5094680;28;20191;-72
2022/08/10 03:23:57;;;;;;;5.10;3.83;;;;;;;27.25;39.31;99337.56;5094242;28;20257;-72
2022/08/10 03:26:26;;;;;;;5.30;4.07;;;;;;;27.20;39.79;99352.09;5094169;28;20256;-72
2022/08/10 03:28:53;;;;;;;4.27;3.87;;;;;;;27.03;39.81;99356.59;5093832;28;20724;-72
2022/08/10 03:31:20;;;;;;;5.23;3.90;;;;;;;27.07;40.15;99363.03;5093659;28;20213;-72
2022/08/10 03:33:48;;;;;;;4.27;3.97;;;;;;;26.99;40.38;99363.78;5093636;28;20488;-72
2022/08/10 03:36:17;;;;;;;3.90;3.60;;;;;;;27.11;40.13;99370.28;5093461;28;20578;-72
2022/08/10 03:38:47;;;;;;;4.27;3.90;;;;;;;27.16;40.02;99363.94;5093582;28;20191;-72
2022/08/10 03:41:16;;;;;;;3.83;3.50;;;;;;;27.29;39.88;99360.38;5093744;28;20241;-72
2022/08/10 03:43:44;;;;;;;4.10;3.80;;;;;;;27.40;39.97;99365.28;5093702;28;20195;-72
2022/08/10 03:46:13;;;;;;;5.83;4.20;;;;;;;27.28;40.60;99375.94;5093983;28;20788;-72
2022/08/10 03:48:43;;;;;;;6.43;4.10;;;;;;;27.24;40.13;99371.41;5093842;28;20602;-72
2022/08/10 03:51:11;;;;;;;5.23;4.20;;;;;;;27.43;39.80;99363.84;5093911;28;20202;-72
2022/08/10 03:53:40;;;;;;;5.37;4.10;;;;;;;27.45;39.93;99367.91;5093624;28;20223;-72
2022/08/10 03:56:08;;;;;;;7.60;4.43;;;;;;;27.34;39.56;99371.16;5093688;28;20202;-73
2022/08/10 03:58:35;;;;;;;4.83;4.43;;;;;;;27.54;39.05;99376.16;5093576;28;20310;-72
2022/08/10 04:01:02;;;;;;;4.00;3.80;;;;;;;27.59;39.94;99376.03;5093749;28;20187;-72
2022/08/10 04:03:29;;;;;;;6.70;4.20;;;;;;;27.81;39.29;99385.06;5093734;28;20196;-72
2022/08/10 04:05:56;;;;;;;4.37;4.00;;;;;;;28.28;38.27;99383.56;5093095;28;20191;-72
2022/08/10 04:08:23;;;;;;;7.43;4.23;;;;;;;28.66;37.11;99377.31;5093291;28;20260;-72
2022/08/10 04:10:52;;;;;;;4.00;3.80;;;;;;;29.15;36.44;99379.72;5092726;28;20199;-72
2022/08/10 04:13:18;;;;;;;6.20;3.60;;;;;;;29.54;35.54;99392.47;5092727;28;20601;-72
2022/08/10 04:15:45;;;;;;;8.20;3.80;;;;;;;30.04;34.36;99393.56;5092778;28;20567;-72
2022/08/10 04:18:12;;;;;;;6.17;3.90;;;;;;;30.47;33.95;99385.25;5093219;28;20195;-73
2022/08/10 04:20:42;;;;;;;4.30;3.90;;;;;;;30.84;33.14;99384.44;5092761;28;20192;-73
2022/08/10 04:23:12;;;;;;;3.53;3.27;;;;;;;31.18;32.77;99392.47;5092912;28;20650;-72
2022/08/10 04:25:40;;;;;;;8.90;3.63;;;;;;;31.62;31.87;99394.56;5092147;28;20676;-71
2022/08/10 04:28:09;;;;;;;4.30;4.00;;;;;;;32.04;31.45;99394.19;5092423;28;20636;-71
2022/08/10 04:30:37;;;;;;;5.10;3.47;;;;;;;32.34;30.74;99395.66;5092406;28;20728;-71
2022/08/10 04:33:06;;;;;;;6.97;4.17;;;;;;;32.72;29.76;99395.38;5092402;28;20248;-70
2022/08/10 04:35:35;;;;;;;5.97;4.30;;;;;;;32.83;29.95;99399.31;5092537;28;20195;-71
2022/08/10 04:38:03;;;;;;;4.70;3.33;;;;;;;33.12;29.39;99401.81;5092752;28;20195;-71
2022/08/10 04:40:30;;;;;;;8.07;4.00;;;;;;;33.35;29.10;99397.41;5092667;28;20248;-70
2022/08/10 04:42:59;;;;;;;7.27;3.73;;;;;;;33.52;29.15;99404.63;5092476;28;20687;-70
2022/08/10 04:45:27;;;;;;;3.83;3.30;;;;;;;33.85;28.75;99400.50;5092665;28;20195;-70
2022/08/10 04:47:53;;;;;;;5.47;3.75;;;;;;;34.16;28.31;99399.78;5092384;28;20739;-70
2022/08/10 04:50:20;;;;;;;7.70;4.13;;;;;;;34.29;28.22;99398.56;5092225;28;20199;-70
2022/08/10 04:52:47;;;;;;;6.93;3.55;;;;;;;34.43;27.81;99398.94;5092155;28;20679;-70
2022/08/10 04:55:13;;;;;;;4.20;3.80;;;;;;;34.81;27.27;99393.59;5092240;28;20227;-71
2022/08/10 04:57:40;;;;;;;6.68;3.50;;;;;;;34.92;27.09;99400.19;5092425;28;20191;-71
2022/08/10 05:00:08;;;;;;;4.60;3.60;;;;;;;34.87;27.25;99398.50;5091891;28;20187;-70
2022/08/10 05:02:36;;;;;;;4.45;3.05;;;;;;;34.66;27.27;99402.69;5091767;28;20195;-70
2022/08/10 05:05:03;;;;;;;3.33;3.05;;;;;;;34.97;26.94;99405.44;5091480;28;20195;-70
2022/08/10 05:07:30;;;;;;;6.00;3.10;;;;;;;35.23;25.82;99408.44;5091607;28;20658;-70
2022/08/10 05:09:56;;;;;;;3.35;3.03;;;;;;;35.36;25.95;99396.91;5091694;28;20191;-70
2022/08/10 05:12:23;;;;;;;3.47;3.17;;;;;;;35.03;26.26;99395.72;5091514;28;20195;-70
2022/08/10 05:14:51;;;;;;;4.88;3.13;;;;;;;35.36;26.43;99393.34;5091529;28;20230;-69
2022/08/10 05:17:17;;;;;;;5.38;3.25;;;;;;;35.41;26.19;99384.78;5091928;28;20233;-69
2022/08/10 05:19:46;;;;;;;4.43;3.00;;;;;;;35.41;25.72;99391.09;5091195;28;20244;-70
2022/08/10 05:22:12;;;;;;;4.53;3.00;;;;;;;35.09;26.24;99388.75;5091818;28;20214;-65
2022/08/10 05:24:39;;;;;;;3.97;2.83;;;;;;;34.98;26.25;99388.50;5091112;28;20199;-64
2022/08/10 05:27:07;;;;;;;9.70;4.03;;;;;;;34.96;26.38;99390.03;5091798;28;20191;-65
2022/08/10 05:29:34;;;;;;;7.35;3.42;;;;;;;34.87;26.51;99392.19;5091604;28;20195;-64
2022/08/10 05:32:01;;;;;;;4.45;3.25;;;;;;;35.05;26.78;99391.44;5087572;28;20635;-65
2022/08/10 05:34:28;;;;;;;7.90;3.80;;;;;;;35.22;26.61;99388.28;5091376;28;20261;-63
2022/08/10 05:36:57;;;;;;;3.95;3.65;;;;;;;34.86;27.05;99390.59;5091404;28;20187;-63
2022/08/10 05:39:24;;;;;;;6.38;3.20;;;;;;;34.75;27.04;99381.22;5091105;28;20659;-63
2022/08/10 05:41:53;;;;;;;6.50;3.35;;;;;;;34.75;27.10;99386.75;5091455;28;20256;-63
2022/08/10 05:44:21;;;;;;;3.22;2.90;;;;;;;34.38;27.48;99382.66;5091261;28;20253;-66
2022/08/10 05:46:48;;;;;;;3.97;3.53;;;;;;;34.19;28.11;99377.81;5091657;28;20195;-66
2022/08/10 05:49:14;;;;;;;3.72;3.50;;;;;;;34.51;27.76;99386.94;5091311;28;20195;-65
2022/08/10 05:51:42;;;;;;;4.88;3.20;;;;;;;34.79;27.66;99393.16;5087585;28;21124;-66
2022/08/10 05:54:14;;;;;;;3.70;3.40;;;;;;;34.45;27.34;99391.91;5090726;28;20226;-66
2022/08/10 05:56:43;;;;;;;7.07;3.53;;;;;;;34.73;27.55;99397.31;5093228;28;20211;-67
2022/08/10 05:59:10;;;;;;;3.72;3.42;;;;;;;34.77;27.56;99398.22;5092327;28;20231;-67
2022/08/10 06:01:41;;;;;;;6.05;3.65;;;;;;;34.36;27.94;99396.78;5092251;28;20257;-66
2022/08/10 06:04:09;;;;;;;4.18;3.28;;;;;;;34.70;27.59;99392.53;5091109;28;20191;-64
2022/08/10 06:06:38;;;;;;;4.35;3.58;;;;;;;34.78;27.66;99402.59;5091882;28;20198;-66
2022/08/10 06:09:07;;;;;;;4.05;3.25;;;;;;;34.58;27.53;99398.16;5089597;28;20197;-65
2022/08/10 06:11:37;;;;;;;8.40;3.38;;;;;;;34.75;27.72;99403.31;5089165;28;20240;-66
2022/08/10 06:16:52;;;;;;;4.50;3.58;;;;;;;35.30;26.85;99403.06;5093301;28;20175;-65
2022/08/10 06:19:19;;;;;;;11.65;3.50;;;;;;;34.77;27.39;99404.53;5089314;28;20240;-65
2022/08/10 06:21:47;;;;;;;5.82;4.13;;;;;;;34.73;27.90;99397.31;5084237;28;20184;-65
2022/08/10 06:24:16;;;;;;;8.38;3.90;;;;;;;34.99;27.72;99389.31;5087598;28;20195;-73
2022/08/10 06:26:44;;;;;;;4.18;3.80;;;;;;;35.19;27.90;99393.72;5086541;28;20191;-73
2022/08/10 06:29:13;;;;;;;7.40;3.92;;;;;;;34.94;27.91;99386.84;5088044;28;20879;-74
2022/08/10 06:31:43;;;;;;;4.68;4.13;;;;;;;34.94;27.71;99381.31;5089829;28;20244;-74
2022/08/10 06:34:11;;;;;;;4.45;3.88;;;;;;;34.67;28.12;99383.00;5090748;28;20219;-73
2022/08/10 06:36:41;;;;;;;4.55;4.25;;;;;;;34.60;28.36;99384.78;5091904;28;20548;-75
2022/08/10 06:39:08;;;;;;;7.95;4.03;;;;;;;35.15;27.71;99385.34;5095451;28;20195;-74
2022/08/10 06:41:38;;;;;;;6.30;4.00;;;;;;;35.69;27.82;99383.38;5095262;28;20276;-74
2022/08/10 06:44:11;;;;;;;4.95;3.90;;;;;;;35.90;27.08;99391.34;5095440;28;20187;-73
2022/08/10 06:46:42;;;;;;;6.03;3.85;;;;;;;36.00;26.63;99387.97;5095527;28;20227;-73
2022/08/10 06:49:11;;;;;;;26.35;5.53;;;;;;;35.95;26.60;99400.16;5093679;28;20248;-71
2022/08/10 06:51:40;;;;;;;4.45;4.15;;;;;;;35.57;26.80;99399.31;5088124;28;20203;-72
2022/08/10 06:54:10;;;;;;;5.72;4.07;;;;;;;35.90;27.03;99399.63;5088309;28;20292;-73
2022/08/10 06:56:42;;;;;;;4.25;3.80;;;;;;;36.07;26.77;99401.94;5091692;28;20698;-72
2022/08/10 06:59:16;;;;;;;4.70;4.30;;;;;;;36.25;26.82;99408.66;5088354;28;20288;-72
2022/08/10 07:01:47;;;;;;;4.65;4.22;;;;;;;36.59;26.16;99407.66;5091566;28;20183;-74
2022/08/10 07:04:21;;;;;;;6.55;4.15;;;;;;;37.14;24.81;99410.59;5092636;28;20540;-69
2022/08/10 07:06:49;;;;;;;10.50;4.65;;;;;;;37.37;24.96;99410.53;5094008;28;20249;-72
2022/08/10 07:09:19;;;;;;;4.15;3.72;;;;;;;37.44;24.43;99421.72;5092617;28;20655;-72
2022/08/10 07:11:48;;;;;;;5.95;4.05;;;;;;;37.52;23.87;99422.59;5093991;28;20195;-72
2022/08/10 07:14:17;;;;;;;6.13;3.95;;;;;;;38.00;23.57;99419.66;5094034;28;20284;-72
2022/08/10 07:16:46;;;;;;;9.88;4.20;;;;;;;38.33;23.20;99424.41;5093924;28;20240;-74
2022/08/10 07:19:13;;;;;;;3.58;3.28;;;;;;;38.24;22.78;99424.72;5093393;28;20261;-75
2022/08/10 07:21:43;;;;;;;7.95;4.22;;;;;;;38.35;23.05;99411.75;5093280;28;20236;-73
2022/08/10 07:24:11;;;;;;;9.38;4.13;;;;;;;38.63;23.14;99425.94;5092475;28;20244;-71
2022/08/10 07:26:42;;;;;;;11.25;4.28;;;;;;;38.99;22.46;99425.03;5093305;28;20244;-70
2022/08/10 07:29:10;;;;;;;7.40;3.72;;;;;;;39.09;22.09;99421.56;5091821;28;20241;-73
2022/08/10 07:31:38;;;;;;;6.57;3.80;;;;;;;39.31;21.92;99416.94;5092809;28;20199;-73
2022/08/10 07:34:06;;;;;;;4.57;3.58;;;;;;;38.84;22.45;99422.50;5092754;28;20659;-75
2022/08/10 07:36:35;;;;;;;3.85;3.55;;;;;;;38.27;23.22;99421.19;5093390;28;20730;-74
2022/08/10 07:39:04;;;;;;;5.90;4.18;;;;;;;38.37;22.93;99420.47;5093563;28;20249;-74
2022/08/10 07:41:33;;;;;;;6.00;3.60;;;;;;;38.67;22.59;99423.97;5093633;28;20737;-74
2022/08/10 07:44:03;;;;;;;4.75;3.67;;;;;;;38.87;22.08;99422.53;5092532;28;20191;-72
2022/08/10 07:46:33;;;;;;;5.68;3.97;;;;;;;39.12;22.20;99423.56;5094477;28;20244;-71
2022/08/10 07:49:04;;;;;;;4.05;3.40;;;;;;;39.34;21.55;99425.31;5092142;28;20244;-72
2022/08/10 07:51:31;;;;;;;6.18;3.78;;;;;;;39.33;21.85;99422.88;5091887;28;20241;-72
2022/08/10 07:54:01;;;;;;;4.75;3.90;;;;;;;39.12;22.42;99418.00;5093674;28;20280;-74
2022/08/10 07:56:30;;;;;;;4.00;3.67;;;;;;;38.50;22.52;99418.25;5091017;28;20743;-73
2022/08/10 07:59:03;;;;;;;3.45;3.17;;;;;;;38.75;22.04;99416.50;5092766;28;20226;-70
2022/08/10 08:01:34;;;;;;;4.25;3.45;;;;;;;39.01;21.80;99417.13;5092324;28;20240;-71
2022/08/10 08:04:03;;;;;;;3.25;2.88;;;;;;;39.18;21.36;99422.00;5091006;28;20324;-69
2022/08/10 08:06:33;;;;;;;4.72;3.53;;;;;;;39.09;21.35;99418.78;5092147;28;20191;-70
2022/08/10 08:09:02;;;;;;;3.40;3.10;;;;;;;38.81;21.40;99410.19;5091902;28;20248;-72
2022/08/10 08:11:29;;;;;;;6.35;3.53;;;;;;;38.89;21.33;99411.84;5091737;28;20596;-73
2022/08/10 08:13:57;;;;;;;9.23;3.05;;;;;;;38.77;21.38;99412.16;5093298;28;20195;-71
2022/08/10 08:16:25;;;;;;;5.80;3.28;;;;;;;38.88;20.98;99407.47;5093193;28;20223;-68
2022/08/10 08:18:53;;;;;;;3.03;2.85;;;;;;;39.05;21.30;99401.28;5090888;28;20196;-71
2022/08/10 08:21:23;;;;;;;5.68;3.20;;;;;;;39.21;20.94;99410.13;5091906;28;20191;-69
2022/08/10 08:23:51;;;;;;;3.88;2.90;;;;;;;39.27;21.08;99408.53;5091827;28;20199;-70
2022/08/10 08:26:21;;;;;;;6.80;3.38;;;;;;;38.63;21.54;99400.94;5091680;28;20315;-71
2022/08/10 08:28:49;;;;;;;3.03;2.80;;;;;;;38.80;21.19;99405.81;5093915;28;20195;-72
2022/08/10 08:31:18;;;;;;;3.95;3.63;;;;;;;38.84;21.09;99401.09;5093353;28;20272;-72
2022/08/10 08:33:47;;;;;;;9.05;3.40;;;;;;;38.96;21.41;99409.16;5093200;28;20191;-72
2022/08/10 08:36:16;;;;;;;4.07;3.45;;;;;;;38.98;21.04;99401.22;5091925;28;20219;-72
2022/08/10 08:38:46;;;;;;;3.80;3.45;;;;;;;38.02;22.63;99394.31;5091295;28;20628;-72
2022/08/10 08:41:37;;;;;;;3.75;3.45;;;;;;;38.02;22.13;99392.34;5091760;28;20191;-70
2022/08/10 08:44:09;;;;;;;5.57;3.20;;;;;;;38.18;22.25;99398.50;5092075;28;20186;-71
2022/08/10 08:46:51;;;;;;;4.43;3.28;;;;;;;38.15;22.30;99390.91;5092840;28;20183;-69
2022/08/10 08:50:03;;;;;;;5.63;3.38;;;;;;;38.12;22.24;99391.69;5092658;28;20184;-70
2022/08/10 08:52:40;;;;;;;4.45;3.50;;;;;;;37.95;21.82;99392.25;5025533;28;20285;-70
2022/08/10 08:55:23;;;;;;;12.13;4.55;;;;;;;37.67;23.51;99386.38;5092561;28;20218;-69
2022/08/10 08:58:00;;;;;;;3.92;3.53;;;;;;;37.65;22.85;99383.19;5092428;28;20274;-70
2022/08/10 09:00:36;;;;;;;4.63;3.30;;;;;;;38.00;22.73;99372.50;5092867;28;20202;-70
2022/08/10 09:03:36;;;;;;;5.18;3.40;;;;;;;38.29;22.90;99377.16;5091776;28;20188;-69
2022/08/10 09:06:22;;;;;;;3.58;3.35;;;;;;;38.50;21.69;99380.16;5090216;28;20241;-69
2022/08/10 09:09:23;;;;;;;5.22;3.72;;;;;;;38.79;21.88;99375.66;5090220;28;20198;-71
2022/08/10 09:12:05;;;;;;;3.70;3.40;;;;;;;38.79;21.69;99376.47;5074489;28;20748;-69
2022/08/10 09:14:40;;;;;;;5.60;3.90;;;;;;;38.97;21.93;99371.84;5089236;28;20191;-68
2022/08/10 09:17:17;;;;;;;3.92;3.35;;;;;;;39.19;21.36;99373.53;5089828;28;20244;-71
2022/08/10 09:19:49;;;;;;;6.43;3.60;;;;;;;39.30;20.91;99366.06;5088833;28;20244;-70
2022/08/10 09:22:24;;;;;;;3.70;3.35;;;;;;;39.42;20.94;99371.31;5090259;28;20184;-69
2022/08/10 09:24:58;;;;;;;3.83;3.50;;;;;;;39.51;20.81;99368.97;5089557;28;20685;-69
2022/08/10 09:27:32;;;;;;;5.05;3.42;;;;;;;39.49;20.81;99374.16;5088784;28;20215;-69
2022/08/10 09:30:04;;;;;;;3.75;3.55;;;;;;;39.52;20.97;99364.22;5089106;28;20191;-69
2022/08/10 09:32:40;;;;;;;4.38;3.60;;;;;;;39.18;21.26;99366.41;5089554;28;20191;-69
2022/08/10 09:35:14;;;;;;;3.50;3.20;;;;;;;39.19;21.05;99368.00;5089159;28;20217;-69
2022/08/10 09:37:47;;;;;;;3.40;3.15;;;;;;;39.38;20.89;99376.06;5091039;28;20252;-70
2022/08/10 09:40:23;;;;;;;3.50;3.28;;;;;;;39.07;20.49;99365.53;5091076;28;20723;-69
2022/08/10 09:43:02;;;;;;;2.88;2.78;;;;;;;38.96;20.87;99370.25;5091604;28;20202;-69
2022/08/10 09:45:39;;;;;;;5.00;3.30;;;;;;;39.14;20.89;99360.03;5090739;28;20195;-69
2022/08/10 09:48:12;;;;;;;3.92;3.63;;;;;;;39.19;20.39;99362.44;5091416;28;20642;-69
2022/08/10 09:50:54;;;;;;;3.47;3.28;;;;;;;38.94;20.73;99357.94;5088762;28;20206;-69
2022/08/10 09:53:34;;;;;;;3.67;3.20;;;;;;;39.07;20.44;99354.41;5091174;28;20215;-69
2022/08/10 09:56:15;;;;;;;9.05;3.05;;;;;;;39.17;20.50;99356.47;5090596;28;20207;-69
2022/08/10 09:59:07;;;;;;;6.10;2.80;;;;;;;38.92;20.65;99357.50;5090522;28;20222;-68
2022/08/10 10:01:41;;;;;;;3.90;3.13;;;;;;;38.96;20.53;99361.91;5089131;28;20187;-69
2022/08/10 10:04:15;;;;;;;3.53;3.22;;;;;;;39.04;20.46;99352.44;5090070;28;20203;-68
2022/08/10 10:06:51;;;;;;;3.40;3.00;;;;;;;38.78;21.22;99349.84;5090521;28;20187;-68
2022/08/10 10:09:27;;;;;;;3.50;3.20;;;;;;;38.70;21.03;99339.84;5090281;28;20187;-69
2022/08/10 10:12:11;;;;;;;6.30;3.13;;;;;;;38.28;21.36;99342.28;5090375;28;20280;-66
2022/08/10 10:17:48;;;;;;;3.30;3.00;;;;;;;38.23;22.68;99337.06;5089682;28;20190;-66
2022/08/10 10:20:25;;;;;;;3.63;3.33;;;;;;;38.24;21.89;99337.84;5090440;28;20628;-65
2022/08/10 10:22:58;;;;;;;3.10;2.95;;;;;;;38.41;22.27;99332.47;5089124;28;20191;-66
2022/08/10 10:25:33;;;;;;;3.13;2.80;;;;;;;37.92;22.54;99337.53;5089330;28;20199;-66
2022/08/10 10:28:29;;;;;;;4.03;3.22;;;;;;;37.28;22.84;99335.94;5087070;28;20187;-64
2022/08/10 10:31:22;;;;;;;5.35;3.53;;;;;;;36.84;23.63;99325.81;5087476;28;20742;-64
2022/08/10 10:34:03;;;;;;;4.78;3.20;;;;;;;36.57;23.85;99321.41;5087899;28;20679;-64
2022/08/10 10:36:32;;;;;;;4.90;3.33;;;;;;;36.40;23.64;99330.22;5089077;28;20211;-65
2022/08/10 10:39:02;;;;;;;4.75;3.50;;;;;;;36.27;24.08;99317.75;5089089;28;20244;-65
2022/08/10 10:41:37;;;;;;;3.85;3.55;;;;;;;36.19;24.80;99321.53;5089735;28;20194;-65
2022/08/10 10:44:19;;;;;;;4.03;3.72;;;;;;;35.94;25.40;99320.31;5089662;28;20187;-65
2022/08/10 10:46:56;;;;;;;4.50;3.60;;;;;;;35.85;25.05;99311.44;5088721;28;20264;-64
2022/08/10 10:49:42;;;;;;;3.63;3.22;;;;;;;35.84;25.20;99316.16;5089830;28;20187;-65
2022/08/10 10:52:20;;;;;;;8.25;3.65;;;;;;;35.71;25.48;99305.59;5090534;28;20646;-65
2022/08/10 10:54:56;;;;;;;6.53;3.30;;;;;;;35.65;25.90;99313.41;5090364;28;20546;-65
2022/08/10 10:57:27;;;;;;;3.50;3.20;;;;;;;34.92;26.44;99311.84;5089911;28;20207;-65
2022/08/10 11:00:03;;;;;;;6.03;3.28;;;;;;;34.51;27.24;99306.91;5088390;28;20227;-65
2022/08/10 11:02:51;;;;;;;5.60;3.65;;;;;;;34.52;27.18;99301.03;5093069;28;20183;-65
2022/08/10 11:05:26;;;;;;;3.63;3.40;;;;;;;34.44;27.48;99302.00;5094929;28;20192;-65
2022/08/10 11:08:03;;;;;;;3.28;3.08;;;;;;;33.79;28.21;99307.34;5094537;28;20704;-65
2022/08/10 11:10:35;;;;;;;3.80;3.50;;;;;;;33.80;28.63;99297.94;5095868;28;20527;-65
2022/08/10 11:13:20;;;;;;;4.55;3.67;;;;;;;33.75;28.60;99295.41;5094552;28;20183;-66
2022/08/10 11:15:57;;;;;;;5.68;3.63;;;;;;;33.60;28.70;99315.50;5089812;28;20203;-65
2022/08/10 11:18:33;;;;;;;4.30;3.22;;;;;;;33.30;28.99;99315.81;5091119;28;20274;-72
2022/08/10 11:21:06;;;;;;;3.90;3.63;;;;;;;33.39;29.19;99328.69;5092804;28;20179;-71
2022/08/10 11:23:43;;;;;;;3.95;3.70;;;;;;;33.38;29.19;99347.16;5091386;28;20184;-71
2022/08/10 11:26:13;;;;;;;10.38;4.30;;;;;;;33.17;30.80;99328.03;5093728;28;20198;-71
2022/08/10 11:28:45;;;;;;;4.57;3.25;;;;;;;32.44;31.88;99340.22;5094320;28;20187;-71
2022/08/10 11:31:21;;;;;;;7.27;4.03;;;;;;;32.22;31.82;99359.88;5093001;28;20890;-73
2022/08/10 11:33:57;;;;;;;10.35;3.00;;;;;;;31.43;32.06;99384.06;5093191;28;20554;-71
2022/08/10 11:36:29;;;;;;;15.33;3.10;;;;;;;30.42;35.11;99394.44;5090788;28;20764;-72
2022/08/10 11:39:05;;;;;;;6.90;3.13;;;;;;;29.39;39.08;99392.94;5091503;28;20188;-70
2022/08/10 11:41:41;;;;;;;4.93;3.07;;;;;;;28.99;41.01;99405.91;5091634;28;20232;-72
2022/08/10 11:44:13;;;;;;;3.83;3.10;;;;;;;28.51;43.10;99420.69;5092319;28;20711;-69
2022/08/10 11:46:48;;;;;;;7.93;3.50;;;;;;;28.26;48.17;99419.41;5092190;28;20245;-68
2022/08/10 11:49:27;;;;;;;9.20;3.77;;;;;;;28.23;50.82;99409.13;5092428;28;20654;-69
2022/08/10 11:51:57;;;;;;;8.17;4.63;;;;;;;28.26;56.32;99391.28;5091140;28;20248;-74
2022/08/10 11:54:30;;;;;;;11.30;4.73;;;;;;;28.28;56.91;99398.03;5091872;28;20559;-67
2022/08/10 11:56:59;;;;;;;6.33;4.07;;;;;;;28.31;60.99;99382.94;5091786;28;20214;-73
2022/08/10 12:02:18;;;;;;;10.63;4.57;;;;;;;28.25;64.52;99376.00;5091638;28;20182;-68
2022/08/10 12:04:51;;;;;;;7.03;4.47;;;;;;;28.05;65.76;99373.81;5090015;28;20195;-73